createdAt,value
2022-11-20T00:01:06.132Z,16.77
2022-11-20T00:03:32.970Z,17.55
2022-11-20T00:06:04.374Z,15.77
2022-11-20T00:08:31.192Z,15.35
2022-11-20T00:10:58.034Z,14.70
2022-11-20T00:13:24.894Z,14.95
2022-11-20T00:15:58.787Z,15.18
2022-11-20T00:18:26.337Z,15.88
2022-11-20T00:20:53.187Z,14.63
2022-11-20T00:23:20.525Z,15.18
2022-11-20T00:25:47.711Z,15.82
2022-11-20T00:28:14.523Z,16.23
2022-11-20T00:30:41.322Z,14.23
2022-11-20T00:33:08.144Z,15.68
2022-11-20T00:35:34.952Z,16.52
2022-11-20T00:38:01.777Z,15.63
2022-11-20T00:40:28.769Z,15.43
2022-11-20T00:42:55.639Z,15.48
2022-11-20T00:45:22.497Z,15.40
2022-11-20T00:47:49.309Z,15.35
2022-11-20T00:50:16.164Z,15.90
2022-11-20T00:52:42.974Z,14.80
2022-11-20T00:55:09.802Z,15.57
2022-11-20T00:57:36.603Z,15.00
2022-11-20T01:00:03.712Z,16.13
2022-11-20T01:02:30.512Z,15.30
2022-11-20T01:04:57.363Z,15.50
2022-11-20T01:07:24.209Z,14.05
2022-11-20T01:09:51.034Z,14.68
2022-11-20T01:12:17.856Z,14.38
2022-11-20T01:14:44.677Z,15.40
2022-11-20T01:17:11.566Z,15.60
2022-11-20T01:19:38.392Z,15.50
2022-11-20T01:22:05.233Z,16.98
2022-11-20T01:24:32.103Z,16.20
2022-11-20T01:26:58.916Z,15.60
2022-11-20T01:29:26.030Z,15.60
2022-11-20T01:31:53.754Z,15.90
2022-11-20T01:34:22.991Z,17.02
2022-11-20T01:36:50.643Z,15.98
2022-11-20T01:39:23.094Z,17.83
2022-11-20T01:42:10.718Z,17.02
2022-11-20T01:44:54.457Z,15.85
2022-11-20T01:47:46.044Z,13.80
2022-11-20T01:50:20.406Z,14.05
2022-11-20T01:52:56.026Z,15.75
2022-11-20T01:55:27.606Z,14.07
2022-11-20T01:57:54.430Z,14.77
2022-11-20T02:00:22.414Z,15.93
2022-11-20T02:02:54.454Z,15.80
2022-11-20T02:06:15.457Z,16.17
2022-11-20T02:08:42.430Z,14.63
2022-11-20T02:11:09.893Z,14.05
2022-11-20T02:13:46.122Z,14.68
2022-11-20T02:16:15.311Z,14.48
2022-11-20T02:18:43.704Z,16.60
2022-11-20T02:21:37.816Z,15.90
2022-11-20T02:24:10.559Z,15.82
2022-11-20T02:27:01.386Z,12.85
2022-11-20T02:29:34.827Z,15.60
2022-11-20T02:32:03.306Z,15.40
2022-11-20T02:34:30.160Z,13.18
2022-11-20T02:36:58.622Z,14.77
2022-11-20T02:39:27.947Z,15.85
2022-11-20T02:41:56.707Z,15.75
2022-11-20T02:44:23.715Z,16.60
2022-11-20T02:46:50.505Z,13.98
2022-11-20T02:49:18.021Z,18.90
2022-11-20T02:51:45.282Z,19.48
2022-11-20T02:54:12.058Z,18.13
2022-11-20T02:56:39.963Z,17.17
2022-11-20T02:59:07.076Z,16.67
2022-11-20T03:01:34.053Z,17.45
2022-11-20T03:04:00.966Z,16.98
2022-11-20T03:06:27.724Z,18.95
2022-11-20T03:08:54.544Z,19.60
2022-11-20T03:11:21.572Z,16.40
2022-11-20T03:13:48.395Z,15.15
2022-11-20T03:16:21.261Z,15.90
2022-11-20T03:18:48.278Z,17.45
2022-11-20T03:21:16.412Z,16.90
2022-11-20T03:23:44.063Z,17.83
2022-11-20T03:26:15.419Z,15.98
2022-11-20T03:28:46.589Z,14.52
2022-11-20T03:31:16.176Z,16.08
2022-11-20T03:36:13.871Z,15.05
2022-11-20T03:38:41.619Z,14.85
2022-11-20T03:41:11.093Z,14.15
2022-11-20T03:43:38.295Z,15.65
2022-11-20T03:46:06.543Z,17.65
2022-11-20T03:48:33.732Z,15.50
2022-11-20T03:51:15.792Z,14.68
2022-11-20T03:53:43.831Z,13.95
2022-11-20T03:56:11.595Z,16.08
2022-11-20T03:58:42.893Z,17.00
2022-11-20T04:01:14.270Z,15.68
2022-11-20T04:03:42.718Z,14.50
2022-11-20T04:06:12.905Z,16.60
2022-11-20T04:08:40.473Z,14.88
2022-11-20T04:11:16.472Z,14.55
2022-11-20T04:13:46.883Z,16.70
2022-11-20T04:16:13.679Z,15.95
2022-11-20T04:18:40.532Z,18.70
2022-11-20T04:21:07.838Z,19.48
2022-11-20T04:23:34.940Z,16.05
2022-11-20T04:26:07.755Z,14.55
2022-11-20T04:28:35.022Z,15.95
2022-11-20T04:31:07.222Z,17.52
2022-11-20T04:33:34.732Z,15.95
2022-11-20T04:36:07.303Z,15.15
2022-11-20T04:38:34.410Z,14.55
2022-11-20T04:41:03.274Z,16.50
2022-11-20T04:43:30.318Z,17.73
2022-11-20T04:45:58.814Z,16.48
2022-11-20T04:48:26.966Z,15.23
2022-11-20T04:50:54.321Z,15.60
2022-11-20T04:53:21.798Z,15.70
2022-11-20T04:55:48.816Z,13.85
2022-11-20T04:58:15.938Z,14.80
2022-11-20T05:00:42.759Z,15.90
2022-11-20T05:03:09.578Z,14.43
2022-11-20T05:05:36.390Z,13.93
2022-11-20T05:08:03.427Z,14.25
2022-11-20T05:10:30.406Z,14.82
2022-11-20T05:12:58.329Z,15.73
2022-11-20T05:15:25.393Z,13.90
2022-11-20T05:17:53.419Z,14.75
2022-11-20T05:20:20.682Z,14.23
2022-11-20T05:22:47.575Z,14.40
2022-11-20T05:25:14.490Z,15.77
2022-11-20T05:27:41.301Z,15.65
2022-11-20T05:30:08.802Z,14.45
2022-11-20T05:32:35.843Z,15.00
2022-11-20T05:35:02.643Z,15.48
2022-11-20T05:37:29.510Z,16.45
2022-11-20T05:39:56.269Z,16.00
2022-11-20T05:42:32.181Z,16.70
2022-11-20T05:45:04.491Z,16.27
2022-11-20T05:47:36.011Z,14.00
2022-11-20T05:50:03.199Z,15.40
2022-11-20T05:52:30.720Z,13.57
2022-11-20T05:54:58.085Z,13.52
2022-11-20T05:57:24.949Z,13.30
2022-11-20T05:59:51.771Z,13.73
2022-11-20T06:02:18.611Z,13.63
2022-11-20T06:04:45.527Z,14.10
2022-11-20T06:07:12.318Z,14.60
2022-11-20T06:09:39.161Z,15.05
2022-11-20T06:12:06.552Z,15.57
2022-11-20T06:14:33.482Z,14.20
2022-11-20T06:17:00.785Z,14.13
2022-11-20T06:19:27.602Z,14.73
2022-11-20T06:21:54.433Z,12.85
2022-11-20T06:24:21.324Z,15.57
2022-11-20T06:26:48.147Z,14.90
2022-11-20T06:29:14.941Z,14.52
2022-11-20T06:31:43.481Z,13.82
2022-11-20T06:34:10.335Z,12.82
2022-11-20T06:36:37.167Z,15.10
2022-11-20T06:39:04.166Z,12.95
2022-11-20T06:41:31.018Z,13.43
2022-11-20T06:43:57.773Z,14.48
2022-11-20T06:46:24.788Z,15.05
2022-11-20T06:48:52.085Z,15.50
2022-11-20T06:51:19.018Z,16.27
2022-11-20T06:53:45.904Z,13.25
2022-11-20T06:56:12.739Z,14.68
2022-11-20T06:58:39.676Z,15.90
2022-11-20T07:01:10.179Z,15.52
2022-11-20T07:03:37.508Z,15.90
2022-11-20T07:06:05.105Z,18.05
2022-11-20T07:08:32.708Z,16.65
2022-11-20T07:11:01.383Z,16.48
2022-11-20T07:13:29.385Z,17.42
2022-11-20T07:16:00.197Z,14.38
2022-11-20T07:18:27.195Z,13.85
2022-11-20T07:20:54.139Z,15.57
2022-11-20T07:23:20.955Z,12.65
2022-11-20T07:25:47.785Z,13.95
2022-11-20T07:28:14.771Z,15.45
2022-11-20T07:30:41.605Z,15.20
2022-11-20T07:33:08.438Z,14.55
2022-11-20T07:35:35.329Z,13.88
2022-11-20T07:38:02.121Z,14.60
2022-11-20T07:40:29.252Z,15.43
2022-11-20T07:42:57.238Z,14.73
2022-11-20T07:45:25.938Z,15.25
2022-11-20T07:47:52.903Z,15.53
2022-11-20T07:50:21.198Z,16.40
2022-11-20T07:52:48.222Z,15.82
2022-11-20T07:55:16.025Z,16.85
2022-11-20T07:57:42.975Z,15.63
2022-11-20T08:00:11.820Z,15.75
2022-11-20T08:02:42.625Z,16.08
2022-11-20T08:05:11.479Z,15.10
2022-11-20T08:07:43.090Z,14.85
2022-11-20T08:10:12.462Z,14.93
2022-11-20T08:13:09.120Z,15.10
2022-11-20T08:15:36.287Z,15.27
2022-11-20T08:18:32.272Z,15.43
2022-11-20T08:21:04.555Z,16.30
2022-11-20T08:23:32.005Z,16.35
2022-11-20T08:25:58.782Z,16.48
2022-11-20T08:28:25.679Z,16.23
2022-11-20T08:30:52.540Z,17.55
2022-11-20T08:33:19.674Z,15.52
2022-11-20T08:35:46.858Z,17.13
2022-11-20T08:38:13.814Z,16.60
2022-11-20T08:40:40.606Z,17.85
2022-11-20T08:43:07.422Z,17.33
2022-11-20T08:45:35.372Z,16.40
2022-11-20T08:48:04.005Z,16.30
2022-11-20T08:50:33.153Z,16.05
2022-11-20T08:53:07.093Z,14.00
2022-11-20T08:55:36.293Z,14.30
2022-11-20T08:58:07.136Z,15.18
2022-11-20T09:00:35.083Z,15.88
2022-11-20T09:03:02.836Z,15.10
2022-11-20T09:05:29.941Z,13.80
2022-11-20T09:08:00.623Z,15.27
2022-11-20T09:10:28.656Z,16.23
2022-11-20T09:12:56.495Z,15.13
2022-11-20T09:15:24.788Z,15.00
2022-11-20T09:17:56.131Z,14.65
2022-11-20T09:20:23.458Z,14.30
2022-11-20T09:22:50.297Z,13.60
2022-11-20T09:25:17.306Z,15.52
2022-11-20T09:27:46.599Z,14.93
2022-11-20T09:30:17.460Z,13.10
2022-11-20T09:32:44.839Z,14.60
2022-11-20T09:35:12.803Z,13.70
2022-11-20T09:37:39.813Z,14.40
2022-11-20T09:40:07.727Z,12.15
2022-11-20T09:43:00.770Z,12.88
2022-11-20T09:45:49.693Z,12.85
2022-11-20T09:48:41.238Z,14.27
2022-11-20T09:51:32.537Z,13.20
2022-11-20T09:54:21.753Z,13.85
2022-11-20T09:56:57.261Z,11.63
2022-11-20T10:00:01.916Z,11.52
2022-11-20T10:02:57.513Z,12.25
2022-11-20T10:05:28.541Z,12.60
2022-11-20T10:08:01.551Z,11.43
2022-11-20T10:10:42.608Z,12.25
2022-11-20T10:13:25.901Z,12.82
2022-11-20T10:16:37.982Z,13.05
2022-11-20T10:19:37.720Z,12.10
2022-11-20T10:22:23.421Z,13.25
2022-11-20T10:25:12.193Z,12.25
2022-11-20T10:28:17.559Z,11.98
2022-11-20T10:30:51.117Z,11.88
2022-11-20T10:33:22.791Z,11.50
2022-11-20T10:36:18.158Z,10.50
2022-11-20T10:38:51.377Z,11.02
2022-11-20T10:41:35.866Z,12.63
2022-11-20T10:44:40.391Z,10.70
2022-11-20T10:47:14.291Z,12.65
2022-11-20T10:49:42.644Z,10.93
2022-11-20T10:52:22.602Z,10.57
2022-11-20T10:55:09.753Z,10.68
2022-11-20T10:57:39.726Z,10.10
2022-11-20T11:00:14.393Z,11.52
2022-11-20T11:02:48.831Z,10.52
2022-11-20T11:05:27.429Z,10.98
2022-11-20T11:07:59.062Z,9.98
2022-11-20T11:10:48.499Z,10.93
2022-11-20T11:13:30.529Z,10.07
2022-11-20T11:15:59.693Z,12.38
2022-11-20T11:18:31.571Z,10.85
2022-11-20T11:21:00.975Z,10.70
2022-11-20T11:23:35.723Z,11.00
2022-11-20T11:26:04.934Z,13.30
2022-11-20T11:28:32.752Z,11.18
2022-11-20T11:30:59.713Z,9.45
2022-11-20T11:33:31.621Z,9.32
2022-11-20T11:36:01.620Z,9.38
2022-11-20T11:38:41.458Z,10.10
2022-11-20T11:41:15.653Z,9.55
2022-11-20T11:44:13.724Z,9.98
2022-11-20T11:46:50.477Z,10.07
2022-11-20T11:49:21.371Z,10.13
2022-11-20T11:52:22.557Z,8.45
2022-11-20T11:55:00.781Z,9.27
2022-11-20T11:57:53.610Z,10.02
2022-11-20T12:00:22.943Z,9.43
2022-11-20T12:03:19.541Z,9.00
2022-11-20T12:05:54.944Z,8.93
2022-11-20T12:08:44.872Z,9.02
2022-11-20T12:11:11.752Z,9.73
2022-11-20T12:13:59.532Z,10.23
2022-11-20T12:16:26.809Z,9.52
2022-11-20T12:18:54.242Z,8.60
2022-11-20T12:21:36.853Z,8.10
2022-11-20T12:24:18.836Z,8.60
2022-11-20T12:27:00.842Z,8.50
2022-11-20T12:29:59.695Z,9.20
2022-11-20T12:32:50.577Z,8.15
2022-11-20T12:35:32.444Z,8.80
2022-11-20T12:38:28.975Z,10.00
2022-11-20T12:41:11.127Z,8.48
2022-11-20T12:44:13.339Z,10.27
2022-11-20T12:47:09.799Z,9.90
2022-11-20T12:49:49.545Z,9.82
2022-11-20T12:52:24.807Z,9.10
2022-11-20T12:55:03.625Z,9.63
2022-11-20T12:57:55.743Z,11.68
2022-11-20T13:00:24.776Z,9.75
2022-11-20T13:02:57.771Z,9.63
2022-11-20T13:06:02.407Z,8.98
2022-11-20T13:08:36.045Z,11.73
2022-11-20T13:11:21.459Z,12.07
2022-11-20T13:14:19.738Z,11.07
2022-11-20T13:17:06.316Z,11.10
2022-11-20T13:19:34.129Z,10.70
2022-11-20T13:22:01.135Z,13.15
2022-11-20T13:24:31.232Z,11.13
2022-11-20T13:27:22.081Z,12.23
2022-11-20T13:30:02.303Z,11.38
2022-11-20T13:32:33.105Z,12.32
2022-11-20T13:35:05.341Z,12.40
2022-11-20T13:37:35.290Z,10.63
2022-11-20T13:40:14.200Z,12.32
2022-11-20T13:42:44.173Z,12.65
2022-11-20T13:45:32.377Z,11.45
2022-11-20T13:48:05.159Z,14.10
2022-11-20T13:50:49.485Z,13.98
2022-11-20T13:53:35.304Z,12.25
2022-11-20T13:56:09.285Z,13.85
2022-11-20T13:58:51.347Z,12.93
2022-11-20T14:01:22.430Z,12.63
2022-11-20T14:04:06.742Z,13.32
2022-11-20T14:06:42.081Z,13.40
2022-11-20T14:09:14.125Z,15.05
2022-11-20T14:11:48.170Z,14.30
2022-11-20T14:14:18.925Z,13.68
2022-11-20T14:16:46.793Z,13.70
2022-11-20T14:19:22.823Z,15.02
2022-11-20T14:21:52.506Z,15.25
2022-11-20T14:24:24.639Z,15.10
2022-11-20T14:26:53.012Z,16.40
2022-11-20T14:29:39.793Z,16.17
2022-11-20T14:32:06.837Z,14.88
2022-11-20T14:34:38.259Z,13.90
2022-11-20T14:37:16.398Z,13.55
2022-11-20T14:39:53.199Z,12.77
2022-11-20T14:42:28.819Z,14.40
2022-11-20T14:45:00.744Z,13.60
2022-11-20T14:47:30.655Z,14.27
2022-11-20T14:49:59.505Z,14.18
2022-11-20T14:52:28.670Z,14.55
2022-11-20T14:55:00.608Z,14.95
2022-11-20T14:57:31.679Z,14.52
2022-11-20T15:00:14.189Z,15.65
2022-11-20T15:02:46.043Z,15.63
2022-11-20T15:05:13.988Z,15.68
2022-11-20T15:07:46.696Z,14.98
2022-11-20T15:10:24.741Z,15.82
2022-11-20T15:12:55.034Z,15.95
2022-11-20T15:15:30.156Z,14.68
2022-11-20T15:17:57.384Z,16.27
2022-11-20T15:20:31.755Z,15.52
2022-11-20T15:22:59.053Z,16.13
2022-11-20T15:25:26.256Z,16.35
2022-11-20T15:27:57.674Z,17.10
2022-11-20T15:30:24.871Z,16.10
2022-11-20T15:32:51.945Z,13.63
2022-11-20T15:35:18.972Z,15.55
2022-11-20T15:37:46.015Z,17.50
2022-11-20T15:40:13.471Z,15.27
2022-11-20T15:43:00.516Z,17.25
2022-11-20T15:45:29.740Z,15.32
2022-11-20T15:47:56.793Z,20.23
2022-11-20T15:50:34.480Z,18.60
2022-11-20T15:53:01.412Z,20.63
2022-11-20T15:55:28.447Z,22.17
2022-11-20T15:57:55.273Z,19.38
2022-11-20T16:00:23.922Z,18.27
2022-11-20T16:02:51.002Z,16.33
2022-11-20T16:05:19.298Z,19.92
2022-11-20T16:07:46.407Z,19.20
2022-11-20T16:10:13.326Z,16.75
2022-11-20T16:12:58.665Z,15.88
2022-11-20T16:15:43.874Z,17.38
2022-11-20T16:18:12.942Z,22.10
2022-11-20T16:20:40.370Z,17.60
2022-11-20T16:23:07.894Z,18.08
2022-11-20T16:25:34.880Z,19.25
2022-11-20T16:28:02.063Z,17.20
2022-11-20T16:30:29.000Z,17.13
2022-11-20T16:32:56.158Z,19.48
2022-11-20T16:35:23.372Z,16.50
2022-11-20T16:37:53.273Z,18.45
2022-11-20T16:40:20.258Z,16.98
2022-11-20T16:42:47.226Z,19.65
2022-11-20T16:45:14.220Z,21.77
2022-11-20T16:47:41.042Z,18.08
2022-11-20T16:50:08.777Z,18.52
2022-11-20T16:52:35.609Z,19.65
2022-11-20T16:55:03.103Z,17.63
2022-11-20T16:57:31.213Z,19.48
2022-11-20T17:00:02.016Z,17.90
2022-11-20T17:02:29.617Z,17.38
2022-11-20T17:04:56.476Z,18.55
2022-11-20T17:07:23.616Z,17.75
2022-11-20T17:09:50.624Z,19.50
2022-11-20T17:12:17.564Z,19.52
2022-11-20T17:14:44.562Z,17.05
2022-11-20T17:17:11.408Z,16.65
2022-11-20T17:19:38.407Z,18.42
2022-11-20T17:22:05.561Z,16.67
2022-11-20T17:24:32.661Z,20.38
2022-11-20T17:26:59.757Z,18.88
2022-11-20T17:29:26.687Z,19.08
2022-11-20T17:31:54.432Z,18.42
2022-11-20T17:34:21.964Z,17.98
2022-11-20T17:36:49.239Z,17.25
2022-11-20T17:39:17.584Z,20.08
2022-11-20T17:41:44.793Z,18.08
2022-11-20T17:44:13.002Z,17.02
2022-11-20T17:46:40.503Z,18.17
2022-11-20T17:49:07.712Z,20.15
2022-11-20T17:51:37.897Z,18.08
2022-11-20T17:54:07.744Z,23.33
2022-11-20T17:56:54.808Z,20.00
2022-11-20T17:59:22.243Z,18.52
2022-11-20T18:01:49.456Z,21.55
2022-11-20T18:04:17.074Z,22.50
2022-11-20T18:06:44.341Z,22.52
2022-11-20T18:09:11.733Z,21.35
2022-11-20T18:11:40.433Z,23.58
2022-11-20T18:14:29.383Z,22.33
2022-11-20T18:17:03.660Z,20.75
2022-11-20T18:19:36.541Z,22.60
2022-11-20T18:22:07.966Z,21.45
2022-11-20T18:24:39.515Z,27.13
2022-11-20T18:27:09.386Z,23.80
2022-11-20T18:29:36.343Z,23.38
2022-11-20T18:32:03.440Z,22.73
2022-11-20T18:34:30.692Z,25.98
2022-11-20T18:36:57.970Z,26.83
2022-11-20T18:39:28.009Z,24.17
2022-11-20T18:42:13.849Z,23.15
2022-11-20T18:44:53.625Z,20.77
2022-11-20T18:47:27.943Z,21.20
2022-11-20T18:49:57.247Z,20.40
2022-11-20T18:52:27.038Z,19.83
2022-11-20T18:54:54.610Z,20.58
2022-11-20T18:57:24.636Z,20.42
2022-11-20T18:59:52.015Z,21.55
2022-11-20T19:02:20.609Z,21.38
2022-11-20T19:04:47.652Z,21.27
2022-11-20T19:07:15.778Z,22.02
2022-11-20T19:09:44.364Z,23.02
2022-11-20T19:12:12.679Z,21.00
2022-11-20T19:14:39.727Z,23.58
2022-11-20T19:17:07.668Z,21.80
2022-11-20T19:19:35.632Z,20.85
2022-11-20T19:22:02.656Z,19.80
2022-11-20T19:24:29.570Z,19.38
2022-11-20T19:26:56.854Z,19.63
2022-11-20T19:29:25.145Z,18.90
2022-11-20T19:31:55.553Z,19.38
2022-11-20T19:34:22.543Z,20.35
2022-11-20T19:36:49.609Z,18.33
2022-11-20T19:39:17.013Z,19.70
2022-11-20T19:41:44.023Z,19.30
2022-11-20T19:44:17.185Z,20.63
2022-11-20T19:46:44.703Z,19.75
2022-11-20T19:49:14.052Z,19.08
2022-11-20T19:51:49.434Z,20.45
2022-11-20T19:54:17.479Z,19.58
2022-11-20T19:56:45.548Z,19.27
2022-11-20T19:59:13.715Z,18.15
2022-11-20T20:01:40.784Z,17.60
2022-11-20T20:04:07.880Z,17.55
2022-11-20T20:06:38.255Z,18.70
2022-11-20T20:09:12.134Z,19.70
2022-11-20T20:11:40.578Z,17.70
2022-11-20T20:14:10.706Z,17.65
2022-11-20T20:16:37.909Z,19.17
2022-11-20T20:19:05.988Z,18.50
2022-11-20T20:21:35.187Z,19.90
2022-11-20T20:24:02.483Z,20.20
2022-11-20T20:26:31.839Z,17.27
2022-11-20T20:29:00.056Z,20.60
2022-11-20T20:31:28.631Z,19.25
2022-11-20T20:33:56.334Z,19.05
2022-11-20T20:36:24.178Z,18.23
2022-11-20T20:38:55.735Z,19.05
2022-11-20T20:41:24.904Z,16.92
2022-11-20T20:44:10.990Z,17.65
2022-11-20T20:46:38.332Z,16.88
2022-11-20T20:49:05.375Z,18.05
2022-11-20T20:51:32.354Z,18.80
2022-11-20T20:53:59.596Z,18.08
2022-11-20T20:56:26.566Z,16.35
2022-11-20T20:58:53.567Z,17.58
2022-11-20T21:01:21.290Z,18.50
2022-11-20T21:03:51.275Z,17.15
2022-11-20T21:06:18.221Z,17.95
2022-11-20T21:08:45.800Z,18.20
2022-11-20T21:11:15.410Z,17.98
2022-11-20T21:16:11.911Z,18.33
2022-11-20T21:18:39.217Z,17.83
2022-11-20T21:21:26.512Z,17.85
2022-11-20T21:23:53.796Z,16.05
2022-11-20T21:26:21.348Z,18.15
2022-11-20T21:28:49.898Z,18.95
2022-11-20T21:31:18.589Z,18.98
2022-11-20T21:33:47.665Z,19.05
2022-11-20T21:36:17.037Z,17.48
2022-11-20T21:38:44.994Z,17.55
2022-11-20T21:41:13.092Z,17.85
2022-11-20T21:43:40.532Z,17.95
2022-11-20T21:46:09.957Z,16.85
2022-11-20T21:48:39.758Z,17.38
2022-11-20T21:51:08.964Z,19.45
2022-11-20T21:53:35.923Z,18.33
2022-11-20T21:56:04.247Z,18.80
2022-11-20T21:58:31.474Z,17.10
2022-11-20T22:00:58.367Z,17.98
2022-11-20T22:03:25.669Z,18.20
2022-11-20T22:05:56.908Z,16.88
2022-11-20T22:08:24.988Z,16.63
2022-11-20T22:11:00.193Z,18.10
2022-11-20T22:13:47.393Z,16.52
2022-11-20T22:16:14.690Z,16.73
2022-11-20T22:18:46.589Z,17.05
2022-11-20T22:21:15.226Z,16.77
2022-11-20T22:23:42.214Z,15.55
2022-11-20T22:26:16.251Z,18.63
2022-11-20T22:28:43.506Z,15.77
2022-11-20T22:31:11.190Z,17.08
2022-11-20T22:33:39.203Z,15.70
2022-11-20T22:36:11.060Z,16.30
2022-11-20T22:38:39.594Z,16.75
2022-11-20T22:41:09.650Z,15.40
2022-11-20T22:43:37.237Z,17.10
2022-11-20T22:46:06.493Z,18.52
2022-11-20T22:48:34.623Z,19.27
2022-11-20T22:51:22.989Z,16.77
2022-11-20T22:53:50.036Z,16.52
2022-11-20T22:56:18.063Z,16.45
2022-11-20T22:58:47.462Z,17.70
2022-11-20T23:01:16.423Z,17.83
2022-11-20T23:03:48.407Z,16.88
2022-11-20T23:06:16.842Z,17.80
2022-11-20T23:08:44.205Z,16.83
2022-11-20T23:11:14.073Z,17.33
2022-11-20T23:13:42.105Z,17.23
2022-11-20T23:16:09.931Z,17.13
2022-11-20T23:18:37.354Z,19.38
2022-11-20T23:21:12.389Z,14.73
2022-11-20T23:23:39.905Z,17.85
2022-11-20T23:26:09.442Z,17.48
2022-11-20T23:28:36.955Z,17.60
2022-11-20T23:31:04.505Z,16.30
2022-11-20T23:33:31.729Z,17.92
2022-11-20T23:35:58.596Z,17.00
2022-11-20T23:38:25.463Z,17.35
2022-11-20T23:40:52.908Z,18.02
2022-11-20T23:43:21.659Z,16.73
2022-11-20T23:45:51.238Z,16.30
2022-11-20T23:50:49.015Z,16.90
2022-11-20T23:53:16.915Z,18.10
2022-11-20T23:55:48.701Z,18.27
2022-11-20T23:58:16.015Z,17.35
